Time;durP1;ratioP1;P1;durP2;ratioP2;P2;SDS_P1;SDS_P2;PMS_P1;PMS_P2;Temp;Humidity;BMP_temperature;BMP_pressure;BME280_temperature;BME280_humidity;BME280_pressure;Samples;Min_cycle;Max_cycle;Signal;HPM_P1;HPM_P2
2024/02/28 00:02:04;;;;;;;50.90;31.80;;;;;;;10.35;100.00;100598.45;105455;1257;97959;-77
2024/02/28 00:04:50;;;;;;;50.80;33.40;;;;;;;10.37;100.00;100596.86;105595;1254;98620;-79
2024/02/28 00:07:35;;;;;;;50.70;34.20;;;;;;;10.38;100.00;100591.33;105618;1258;101389;-77
2024/02/28 00:10:21;;;;;;;52.20;34.80;;;;;;;10.39;100.00;100588.16;105441;1254;99271;-77
2024/02/28 00:13:07;;;;;;;58.10;36.40;;;;;;;10.40;100.00;100594.61;105583;1257;98085;-77
2024/02/28 00:15:52;;;;;;;51.70;36.10;;;;;;;10.41;100.00;100608.86;105574;1255;99241;-77
2024/02/28 00:18:38;;;;;;;55.80;35.90;;;;;;;10.39;100.00;100625.08;105629;1257;97947;-78
2024/02/28 00:21:23;;;;;;;59.40;37.60;;;;;;;10.36;100.00;100623.89;105500;1254;102462;-78
2024/02/28 00:24:09;;;;;;;55.70;36.80;;;;;;;10.36;100.00;100619.67;105633;1255;100304;-76
2024/02/28 00:26:55;;;;;;;53.00;35.10;;;;;;;10.36;100.00;100620.54;105381;1254;97963;-78
2024/02/28 00:29:40;;;;;;;55.50;35.50;;;;;;;10.33;100.00;100618.48;105541;1258;97884;-76
2024/02/28 00:32:26;;;;;;;55.30;35.00;;;;;;;10.29;100.00;100618.80;105564;1254;97879;-78
2024/02/28 00:35:11;;;;;;;55.40;35.90;;;;;;;10.25;100.00;100617.45;105473;1257;102283;-77
2024/02/28 00:37:57;;;;;;;59.70;36.30;;;;;;;10.19;100.00;100613.16;105536;1257;99097;-77
2024/02/28 00:40:43;;;;;;;58.20;36.40;;;;;;;10.15;100.00;100613.48;105482;1257;99751;-76
2024/02/28 00:43:29;;;;;;;55.10;36.70;;;;;;;10.13;100.00;100613.29;105422;1254;97973;-76
2024/02/28 00:46:14;;;;;;;56.00;36.40;;;;;;;10.13;100.00;100611.65;105630;1254;98563;-77
2024/02/28 00:49:00;;;;;;;53.20;36.60;;;;;;;10.14;100.00;100610.17;105671;1254;102079;-78
2024/02/28 00:51:47;;;;;;;56.80;36.30;;;;;;;10.13;100.00;100610.26;105524;1254;100153;-77
2024/02/28 00:54:32;;;;;;;51.60;36.30;;;;;;;10.13;100.00;100612.39;105639;1254;99108;-77
2024/02/28 00:57:18;;;;;;;54.10;35.60;;;;;;;10.14;100.00;100606.66;105592;1257;97977;-77
2024/02/28 01:00:05;;;;;;;55.40;36.90;;;;;;;10.14;100.00;100599.92;105653;1257;97970;-77
2024/02/28 01:02:50;;;;;;;56.00;35.40;;;;;;;10.14;100.00;100599.44;105747;1254;103142;-79
2024/02/28 01:05:36;;;;;;;60.90;38.00;;;;;;;10.14;100.00;100599.84;105858;1257;100369;-78
2024/02/28 01:08:22;;;;;;;61.80;40.30;;;;;;;10.14;100.00;100598.80;106058;1254;98986;-79
2024/02/28 01:11:07;;;;;;;65.60;43.00;;;;;;;10.13;100.00;100602.63;105758;1257;97882;-79
2024/02/28 01:13:53;;;;;;;60.90;40.20;;;;;;;10.11;100.00;100610.89;105745;1253;98024;-78
2024/02/28 01:16:38;;;;;;;62.50;41.20;;;;;;;10.07;100.00;100603.45;105764;1257;101461;-77
2024/02/28 01:19:23;;;;;;;64.60;41.30;;;;;;;10.06;100.00;100603.23;105790;1254;99109;-79
2024/02/28 01:22:09;;;;;;;64.50;42.20;;;;;;;10.05;100.00;100603.92;105708;1254;97932;-77
2024/02/28 01:24:55;;;;;;;68.30;42.50;;;;;;;10.04;100.00;100608.11;105913;1254;97945;-79
2024/02/28 01:27:40;;;;;;;64.30;42.10;;;;;;;10.04;100.00;100609.67;105982;1254;98360;-78
2024/02/28 01:30:26;;;;;;;68.00;42.40;;;;;;;10.04;100.00;100607.03;105735;1259;101342;-78
2024/02/28 01:33:12;;;;;;;60.90;41.40;;;;;;;10.04;100.00;100611.52;105754;1257;99121;-78
2024/02/28 01:35:58;;;;;;;65.50;42.90;;;;;;;10.05;100.00;100612.14;105733;1256;98943;-80
2024/02/28 01:38:44;;;;;;;65.70;41.70;;;;;;;10.06;100.00;100609.49;105823;1254;97982;-78
2024/02/28 01:41:30;;;;;;;65.30;42.30;;;;;;;10.07;100.00;100608.63;105835;1253;97950;-78
2024/02/28 01:44:15;;;;;;;63.10;40.60;;;;;;;10.08;100.00;100608.32;105862;1254;101414;-78
2024/02/28 01:47:03;;;;;;;63.40;41.50;;;;;;;10.08;100.00;100610.10;105832;1257;99253;-79
2024/02/28 01:49:50;;;;;;;65.20;43.10;;;;;;;10.08;100.00;100616.77;105956;1254;99585;-77
2024/02/28 01:52:38;;;;;;;69.00;43.00;;;;;;;10.07;100.00;100619.84;105646;1256;170399;-79
2024/02/28 01:55:24;;;;;;;63.80;40.40;;;;;;;10.07;100.00;100618.61;105989;1254;97947;-79
2024/02/28 01:58:11;;;;;;;65.80;41.70;;;;;;;10.08;100.00;100614.75;105930;1256;102610;-78
2024/02/28 02:00:57;;;;;;;63.90;41.50;;;;;;;10.09;100.00;100617.12;105848;1254;99130;-78
2024/02/28 02:03:44;;;;;;;66.50;43.00;;;;;;;10.08;100.00;100621.70;105850;1258;98012;-77
2024/02/28 02:06:30;;;;;;;66.20;43.20;;;;;;;10.07;100.00;100631.98;105916;1257;98030;-78
2024/02/28 02:09:16;;;;;;;65.10;43.20;;;;;;;10.05;100.00;100637.06;105605;1254;99129;-77
2024/02/28 02:12:02;;;;;;;69.10;44.40;;;;;;;10.03;100.00;100633.69;107767;1253;102042;-77
2024/02/28 02:14:49;;;;;;;67.50;43.10;;;;;;;10.03;100.00;100627.35;105514;1257;99057;-76
2024/02/28 02:17:34;;;;;;;65.30;42.90;;;;;;;10.02;100.00;100621.90;105642;1257;99251;-78
2024/02/28 02:20:21;;;;;;;68.60;44.20;;;;;;;10.03;100.00;100623.61;105764;1257;97880;-78
2024/02/28 02:23:07;;;;;;;66.60;44.00;;;;;;;10.03;100.00;100625.63;105857;1253;99260;-78
2024/02/28 02:25:53;;;;;;;66.10;40.50;;;;;;;10.04;100.00;100628.98;105872;1253;101976;-77
2024/02/28 02:28:38;;;;;;;72.40;45.30;;;;;;;10.05;100.00;100628.86;106483;1254;99122;-78
2024/02/28 02:31:24;;;;;;;66.10;42.70;;;;;;;10.06;100.00;100632.14;105794;1253;98374;-78
2024/02/28 02:34:09;;;;;;;70.20;45.10;;;;;;;10.07;100.00;100637.70;105878;1257;97924;-78
2024/02/28 02:36:55;;;;;;;95.20;65.80;;;;;;;10.06;100.00;100645.67;105789;1258;98432;-78
2024/02/28 02:39:41;;;;;;;77.60;53.30;;;;;;;10.03;100.00;100646.52;105994;1253;103369;-78
2024/02/28 02:42:26;;;;;;;69.80;46.40;;;;;;;10.03;100.00;100638.71;105760;1257;99211;-78
2024/02/28 02:45:12;;;;;;;64.50;44.50;;;;;;;10.03;100.00;100637.61;105687;1254;98254;-77
2024/02/28 02:47:57;;;;;;;80.60;53.20;;;;;;;10.02;100.00;100642.27;105524;1253;97973;-77
2024/02/28 02:50:43;;;;;;;78.10;50.70;;;;;;;9.98;100.00;100642.35;105441;1259;98434;-78
2024/02/28 02:53:28;;;;;;;82.30;52.30;;;;;;;9.96;100.00;100642.64;105467;1257;101485;-76
2024/02/28 02:56:14;;;;;;;84.60;52.20;;;;;;;9.95;100.00;100640.00;105441;1254;99075;-76
2024/02/28 02:58:59;;;;;;;83.90;51.50;;;;;;;9.96;100.00;100640.30;105528;1257;97977;-77
2024/02/28 03:01:45;;;;;;;85.60;56.40;;;;;;;9.96;100.00;100635.84;105751;1254;99228;-76
2024/02/28 03:04:31;;;;;;;84.10;54.90;;;;;;;9.96;100.00;100639.06;105514;1253;99159;-77
2024/02/28 03:07:17;;;;;;;81.10;52.10;;;;;;;9.97;100.00;100632.85;105525;1257;102253;-76
2024/02/28 03:10:03;;;;;;;82.80;52.00;;;;;;;9.98;100.00;100627.32;105492;1254;99188;-77
2024/02/28 03:12:48;;;;;;;75.10;50.10;;;;;;;10.00;100.00;100626.06;105822;1257;98043;-76
2024/02/28 03:15:34;;;;;;;83.90;52.00;;;;;;;10.01;100.00;100627.98;105427;1254;97951;-76
2024/02/28 03:18:19;;;;;;;76.70;50.40;;;;;;;10.00;100.00;100623.02;105637;1256;98424;-77
2024/02/28 03:21:05;;;;;;;79.50;51.60;;;;;;;9.99;100.00;100620.98;105577;1257;101395;-77
2024/02/28 03:23:51;;;;;;;79.90;49.90;;;;;;;9.97;100.00;100620.15;105626;1254;99072;-77
2024/02/28 03:26:37;;;;;;;73.80;49.00;;;;;;;9.96;100.00;100618.68;107054;1253;98929;-77
2024/02/28 03:29:22;;;;;;;73.80;48.90;;;;;;;9.96;100.00;100623.33;105526;1253;97970;-77
2024/02/28 03:32:07;;;;;;;83.50;51.70;;;;;;;9.96;100.00;100623.37;105416;1257;98638;-78
2024/02/28 03:34:53;;;;;;;80.10;50.80;;;;;;;9.95;100.00;100624.59;105458;1254;102642;-77
2024/02/28 03:37:38;;;;;;;80.30;52.20;;;;;;;9.94;100.00;100621.23;105490;1254;99179;-76
2024/02/28 03:40:24;;;;;;;75.30;50.40;;;;;;;9.94;100.00;100623.18;105510;1253;99005;-76
2024/02/28 03:43:10;;;;;;;79.70;51.40;;;;;;;9.93;100.00;100623.00;105483;1257;97963;-78
2024/02/28 03:45:55;;;;;;;84.10;50.80;;;;;;;9.90;100.00;100625.30;105534;1256;98392;-75
2024/02/28 03:48:41;;;;;;;71.60;47.90;;;;;;;9.88;100.00;100628.89;105691;1257;102717;-77
2024/02/28 03:51:26;;;;;;;81.00;49.90;;;;;;;9.87;100.00;100623.20;105622;1257;99192;-78
2024/02/28 03:54:12;;;;;;;79.00;50.60;;;;;;;9.85;100.00;100620.07;105697;1253;98559;-78
2024/02/28 03:56:58;;;;;;;82.80;51.60;;;;;;;9.82;100.00;100619.73;105611;1257;99288;-78
2024/02/28 03:59:44;;;;;;;75.00;48.50;;;;;;;9.77;100.00;100615.66;105581;1258;97870;-77
2024/02/28 04:02:29;;;;;;;77.80;50.20;;;;;;;9.72;100.00;100613.40;105579;1257;102643;-77
2024/02/28 04:05:15;;;;;;;76.30;47.90;;;;;;;9.66;100.00;100610.00;105575;1257;99084;-78
2024/02/28 04:08:00;;;;;;;71.40;47.80;;;;;;;9.61;100.00;100608.07;105475;1254;98870;-77
2024/02/28 04:10:46;;;;;;;73.20;47.30;;;;;;;9.58;100.00;100607.92;105515;1253;98094;-75
2024/02/28 04:13:31;;;;;;;77.30;48.30;;;;;;;9.57;100.00;100610.91;105624;1254;98504;-77
2024/02/28 04:16:17;;;;;;;74.80;46.90;;;;;;;9.56;100.00;100612.59;105497;1254;101379;-78
2024/02/28 04:19:02;;;;;;;77.20;47.10;;;;;;;9.56;100.00;100611.94;105586;1253;100061;-77
2024/02/28 04:21:48;;;;;;;73.30;46.10;;;;;;;9.56;100.00;100611.40;105542;1257;98999;-76
2024/02/28 04:24:34;;;;;;;72.60;46.70;;;;;;;9.55;100.00;100610.11;105503;1254;97895;-77
2024/02/28 04:27:20;;;;;;;75.70;46.80;;;;;;;9.54;100.00;100612.85;105617;1253;97950;-76
2024/02/28 04:30:06;;;;;;;75.00;48.20;;;;;;;9.53;100.00;100616.93;105530;1257;102115;-76
2024/02/28 04:32:51;;;;;;;76.70;47.60;;;;;;;9.51;100.00;100615.05;107261;1257;100784;-77
2024/02/28 04:35:36;;;;;;;71.20;46.00;;;;;;;9.50;100.00;100613.88;105579;1257;98641;-78
2024/02/28 04:38:22;;;;;;;78.60;48.30;;;;;;;9.49;100.00;100619.53;105702;1253;98037;-77
2024/02/28 04:41:08;;;;;;;78.10;49.40;;;;;;;9.48;100.00;100621.33;105779;1257;97991;-78
2024/02/28 04:43:53;;;;;;;80.20;49.60;;;;;;;9.48;100.00;100627.20;105771;1253;102680;-77
2024/02/28 04:46:39;;;;;;;82.70;51.50;;;;;;;9.48;100.00;100628.94;105587;1257;99166;-77
2024/02/28 04:49:25;;;;;;;85.10;53.10;;;;;;;9.49;100.00;100624.75;105682;1253;97947;-78
2024/02/28 04:52:10;;;;;;;90.30;53.70;;;;;;;9.48;100.00;100630.30;105555;1259;98978;-78
2024/02/28 04:54:56;;;;;;;94.20;55.30;;;;;;;9.48;100.00;100630.14;105668;1253;97893;-78
2024/02/28 04:57:42;;;;;;;95.60;56.20;;;;;;;9.47;100.00;100633.66;105528;1253;102833;-78
2024/02/28 05:00:27;;;;;;;104.80;56.50;;;;;;;9.45;100.00;100636.95;105604;1257;100593;-78
2024/02/28 05:03:13;;;;;;;105.10;59.60;;;;;;;9.42;100.00;100647.11;105601;1254;98557;-78
2024/02/28 05:05:59;;;;;;;101.50;59.80;;;;;;;9.41;100.00;100652.05;105603;1253;98412;-76
2024/02/28 05:08:44;;;;;;;103.90;57.10;;;;;;;9.42;100.00;100656.59;106397;1253;98498;-79
2024/02/28 05:11:30;;;;;;;108.40;59.50;;;;;;;9.42;100.00;100653.18;105812;1257;101344;-79
2024/02/28 05:14:16;;;;;;;96.70;56.50;;;;;;;9.43;100.00;100658.05;105808;1259;100142;-78
2024/02/28 05:17:01;;;;;;;116.40;58.10;;;;;;;9.42;100.00;100662.11;105714;1253;98415;-78
2024/02/28 05:19:47;;;;;;;103.20;59.70;;;;;;;9.41;100.00;100666.16;105823;1257;97954;-78
2024/02/28 05:22:32;;;;;;;104.40;61.10;;;;;;;9.40;100.00;100669.07;105791;1259;97963;-78
2024/02/28 05:25:18;;;;;;;101.40;59.00;;;;;;;9.39;100.00;100676.82;105455;1253;102193;-77
2024/02/28 05:28:04;;;;;;;134.60;61.80;;;;;;;9.40;100.00;100676.02;105547;1257;100323;-77
2024/02/28 05:30:50;;;;;;;106.20;61.70;;;;;;;9.40;100.00;100675.27;105494;1253;97960;-76
2024/02/28 05:33:35;;;;;;;109.00;60.70;;;;;;;9.41;100.00;100680.46;105494;1257;97877;-77
2024/02/28 05:36:22;;;;;;;110.40;58.70;;;;;;;9.40;100.00;100683.23;105702;1257;98469;-79
2024/02/28 05:39:08;;;;;;;104.80;60.70;;;;;;;9.39;100.00;100690.09;105882;1254;101397;-79
2024/02/28 05:41:54;;;;;;;107.30;60.20;;;;;;;9.38;100.00;100691.90;105593;1254;100331;-77
2024/02/28 05:44:39;;;;;;;105.50;60.60;;;;;;;9.39;100.00;100694.70;105595;1257;97964;-76
2024/02/28 05:47:25;;;;;;;104.00;62.40;;;;;;;9.39;100.00;100695.77;105566;1257;98294;-77
2024/02/28 05:50:10;;;;;;;106.10;60.60;;;;;;;9.40;100.00;100696.23;105527;1256;99234;-77
2024/02/28 05:52:56;;;;;;;98.10;59.60;;;;;;;9.40;100.00;100694.76;105565;1257;101368;-77
2024/02/28 05:55:41;;;;;;;112.70;58.00;;;;;;;9.40;100.00;100696.94;105638;1254;100429;-77
2024/02/28 05:58:27;;;;;;;88.90;56.30;;;;;;;9.38;100.00;100700.83;105519;1253;98039;-78
2024/02/28 06:01:18;;;;;;;92.90;53.60;;;;;;;9.38;100.00;100699.05;105579;1253;97860;-78
2024/02/28 06:04:03;;;;;;;89.70;54.40;;;;;;;9.38;100.00;100698.73;105906;1256;97867;-77
2024/02/28 06:06:50;;;;;;;88.60;54.10;;;;;;;9.38;100.00;100697.15;105573;1257;103311;-79
2024/02/28 06:09:36;;;;;;;85.70;54.70;;;;;;;9.38;100.00;100697.35;105588;1257;100112;-77
2024/02/28 06:12:21;;;;;;;86.90;54.00;;;;;;;9.39;100.00;100697.04;105528;1257;97970;-77
2024/02/28 06:15:07;;;;;;;100.20;54.40;;;;;;;9.38;100.00;100698.16;105533;1257;97948;-78
2024/02/28 06:17:52;;;;;;;97.70;57.70;;;;;;;9.37;100.00;100703.34;105585;1254;97935;-77
2024/02/28 06:20:38;;;;;;;91.10;55.30;;;;;;;9.36;100.00;100708.79;105669;1253;103067;-76
2024/02/28 06:23:23;;;;;;;97.70;58.60;;;;;;;9.37;100.00;100711.73;105670;1254;100363;-77
2024/02/28 06:26:16;;;;;;;96.10;58.10;;;;;;;9.38;100.00;100709.86;105496;1254;97958;-77
2024/02/28 06:29:04;;;;;;;97.40;58.30;;;;;;;9.40;100.00;100715.45;105558;1257;98005;-76
2024/02/28 06:31:53;;;;;;;97.30;58.80;;;;;;;9.43;100.00;100714.98;105679;1257;97857;-78
2024/02/28 06:34:38;;;;;;;92.60;57.40;;;;;;;9.45;100.00;100712.92;105614;1257;101371;-77
2024/02/28 06:37:24;;;;;;;93.40;57.80;;;;;;;9.47;100.00;100713.17;105620;1257;99174;-77
2024/02/28 06:40:10;;;;;;;91.40;57.70;;;;;;;9.49;100.00;100709.24;105583;1256;99026;-78
2024/02/28 06:42:56;;;;;;;85.10;56.30;;;;;;;9.50;100.00;100708.23;105539;1257;97965;-77
2024/02/28 06:45:41;;;;;;;83.50;54.40;;;;;;;9.50;100.00;100705.86;105541;1253;98578;-77
2024/02/28 06:48:28;;;;;;;88.60;56.40;;;;;;;9.51;100.00;100705.76;105744;1254;101327;-76
2024/02/28 06:51:13;;;;;;;93.00;60.90;;;;;;;9.53;100.00;100706.11;105602;1256;100645;-77
2024/02/28 06:53:59;;;;;;;95.00;60.30;;;;;;;9.53;100.00;100712.05;105528;1253;98066;-77
2024/02/28 06:56:44;;;;;;;102.90;63.30;;;;;;;9.56;100.00;100712.34;105530;1253;97970;-78
2024/02/28 06:59:31;;;;;;;109.10;65.70;;;;;;;9.58;100.00;100711.02;105620;1256;98463;-77
2024/02/28 07:02:17;;;;;;;113.30;67.00;;;;;;;9.59;100.00;100710.42;105556;1257;101313;-76
2024/02/28 07:05:04;;;;;;;112.00;68.20;;;;;;;9.62;100.00;100712.80;105519;1253;99068;-77
2024/02/28 07:07:49;;;;;;;117.20;65.20;;;;;;;9.65;100.00;100715.89;105579;1254;99401;-79
2024/02/28 07:10:36;;;;;;;113.00;66.50;;;;;;;9.69;100.00;100723.11;105464;1259;99196;-76
2024/02/28 07:13:22;;;;;;;121.80;76.80;;;;;;;9.70;100.00;100725.79;105740;1257;98380;-78
2024/02/28 07:16:07;;;;;;;116.10;70.40;;;;;;;9.72;100.00;100726.64;105894;1258;102318;-78
2024/02/28 07:18:52;;;;;;;120.00;71.40;;;;;;;9.75;100.00;100732.37;105953;1253;99111;-78
2024/02/28 07:21:38;;;;;;;110.50;69.80;;;;;;;9.78;100.00;100736.50;105825;1254;100068;-78
2024/02/28 07:24:23;;;;;;;111.90;68.50;;;;;;;9.80;100.00;100740.11;105809;1257;97896;-78
2024/02/28 07:27:09;;;;;;;118.90;73.10;;;;;;;9.82;100.00;100742.19;105899;1254;97837;-79
2024/02/28 07:29:54;;;;;;;112.50;69.30;;;;;;;9.84;100.00;100748.05;105738;1257;101459;-76
2024/02/28 07:32:40;;;;;;;120.40;72.30;;;;;;;9.85;100.00;100751.98;105868;1258;99978;-88
2024/02/28 07:35:27;;;;;;;111.80;68.60;;;;;;;9.87;100.00;100752.88;106747;1253;99104;-85
2024/02/28 07:38:13;;;;;;;113.80;68.60;;;;;;;9.87;100.00;100757.49;106328;1259;97950;-85
2024/02/28 07:40:59;;;;;;;118.20;69.50;;;;;;;9.88;100.00;100758.05;106425;1258;97889;-87
2024/02/28 07:43:46;;;;;;;119.10;69.70;;;;;;;9.90;100.00;100758.61;106451;1253;102521;-85
2024/02/28 07:46:31;;;;;;;119.40;71.60;;;;;;;9.91;100.00;100757.88;106362;1254;99260;-84
2024/02/28 07:49:17;;;;;;;121.30;71.30;;;;;;;9.93;100.00;100764.24;106360;1257;98928;-86
2024/02/28 07:52:03;;;;;;;118.00;70.40;;;;;;;9.95;100.00;100765.49;106273;1254;97832;-84
2024/02/28 07:54:49;;;;;;;115.80;70.50;;;;;;;9.96;100.00;100768.48;106231;1254;98521;-82
2024/02/28 07:57:35;;;;;;;119.80;71.10;;;;;;;9.98;100.00;100772.92;106194;1259;101281;-85
2024/02/28 08:00:22;;;;;;;120.60;71.50;;;;;;;9.97;100.00;100771.11;106328;1258;99047;-86
2024/02/28 08:03:09;;;;;;;115.50;69.40;;;;;;;9.98;100.00;100771.20;106302;1253;98377;-87
2024/02/28 08:05:54;;;;;;;123.20;72.00;;;;;;;9.97;100.00;100774.69;106448;1257;98902;-76
2024/02/28 08:08:39;;;;;;;117.50;71.30;;;;;;;9.96;100.00;100774.38;106069;1253;98488;-77
2024/02/28 08:11:25;;;;;;;117.20;70.60;;;;;;;9.97;100.00;100781.98;105775;1256;102643;-77
2024/02/28 08:14:11;;;;;;;120.60;71.60;;;;;;;9.97;100.00;100780.00;105714;1255;99129;-77
2024/02/28 08:16:56;;;;;;;119.00;70.60;;;;;;;9.99;100.00;100779.95;105518;1253;98721;-76
2024/02/28 08:19:42;;;;;;;126.20;74.00;;;;;;;10.01;100.00;100783.14;105522;1259;99513;-77
2024/02/28 08:22:28;;;;;;;114.20;69.10;;;;;;;10.01;100.00;100781.46;106235;1254;98398;-89
2024/02/28 08:25:16;;;;;;;118.30;68.90;;;;;;;10.05;100.00;100780.91;106718;1253;101514;-82
2024/02/28 08:28:01;;;;;;;111.00;68.10;;;;;;;10.09;100.00;100779.92;106338;1254;99098;-84
2024/02/28 08:30:49;;;;;;;118.60;69.20;;;;;;;10.17;100.00;100780.38;106380;1253;99022;-87
2024/02/28 08:33:35;;;;;;;110.00;67.50;;;;;;;10.23;100.00;100779.27;106858;1261;98017;-84
2024/02/28 08:36:20;;;;;;;117.00;68.30;;;;;;;10.32;100.00;100778.83;106113;1254;98456;-83
2024/02/28 08:39:09;;;;;;;111.20;67.20;;;;;;;10.39;100.00;100776.51;106181;1253;102546;-84
2024/02/28 08:41:55;;;;;;;109.30;65.60;;;;;;;10.47;100.00;100775.02;106391;1258;99244;-86
2024/02/28 08:44:41;;;;;;;103.00;62.70;;;;;;;10.58;100.00;100774.58;106521;1254;97968;-85
2024/02/28 08:47:27;;;;;;;112.70;66.70;;;;;;;10.71;100.00;100772.84;106438;1257;97986;-85
2024/02/28 08:50:13;;;;;;;107.90;69.30;;;;;;;10.76;100.00;100769.92;106283;1253;96131;-84
2024/02/28 08:52:59;;;;;;;108.70;67.70;;;;;;;10.76;100.00;100772.36;106359;1253;102740;-83
2024/02/28 08:55:45;;;;;;;99.30;63.70;;;;;;;10.77;100.00;100778.64;106050;1253;99153;-86
2024/02/28 08:58:33;;;;;;;100.60;66.60;;;;;;;10.81;100.00;100772.67;106099;1262;97970;-85
2024/02/28 09:01:20;;;;;;;102.10;62.80;;;;;;;10.81;100.00;100773.17;106352;1254;98022;-83
2024/02/28 09:04:06;;;;;;;103.60;64.50;;;;;;;10.79;100.00;100771.69;106428;1257;97864;-86
2024/02/28 09:06:53;;;;;;;104.30;63.50;;;;;;;10.77;100.00;100777.04;106411;1253;101411;-78
2024/02/28 09:09:42;;;;;;;103.40;64.40;;;;;;;10.77;100.00;100780.85;106759;1257;99663;-79
2024/02/28 09:12:27;;;;;;;102.60;64.10;;;;;;;10.77;100.00;100785.30;108627;1253;98250;-80
2024/02/28 09:15:12;;;;;;;100.40;61.40;;;;;;;10.78;100.00;100783.73;106510;1253;97954;-85
2024/02/28 09:17:59;;;;;;;97.20;61.70;;;;;;;10.78;100.00;100780.47;106194;1259;98515;-85
2024/02/28 09:20:44;;;;;;;98.20;62.60;;;;;;;10.78;100.00;100779.11;105742;1253;101471;-79
2024/02/28 09:23:30;;;;;;;107.50;66.80;;;;;;;10.77;100.00;100785.78;105762;1259;99148;-85
2024/02/28 09:26:16;;;;;;;106.40;63.40;;;;;;;10.79;100.00;100784.19;106345;1254;98012;-86
2024/02/28 09:29:02;;;;;;;106.50;64.20;;;;;;;10.78;100.00;100787.52;106424;1259;97951;-82
2024/02/28 09:31:48;;;;;;;103.20;63.00;;;;;;;10.75;100.00;100787.60;106264;1259;100153;-83
2024/02/28 09:34:34;;;;;;;101.30;63.50;;;;;;;10.76;100.00;100791.02;106654;1256;103411;-83
2024/02/28 09:37:22;;;;;;;106.40;65.30;;;;;;;10.76;100.00;100794.33;106377;1258;100339;-84
2024/02/28 09:40:09;;;;;;;100.30;62.70;;;;;;;10.77;100.00;100794.96;106214;1261;98977;-84
2024/02/28 09:43:04;;;;;;;94.30;58.60;;;;;;;10.77;100.00;100798.71;106473;1254;98528;-88
2024/02/28 09:45:50;;;;;;;93.70;60.30;;;;;;;10.78;100.00;100800.54;106357;1259;96267;-80
2024/02/28 09:48:40;;;;;;;86.80;55.70;;;;;;;10.77;100.00;100803.79;106738;1253;102501;-82
2024/02/28 09:51:27;;;;;;;88.90;56.50;;;;;;;10.77;100.00;100806.30;106559;1253;99200;-82
2024/02/28 09:54:13;;;;;;;86.30;54.70;;;;;;;10.74;100.00;100809.38;107534;1253;107603;-87
2024/02/28 09:57:01;;;;;;;83.40;54.90;;;;;;;10.71;100.00;100810.11;106940;1254;97952;-86
2024/02/28 09:59:48;;;;;;;80.10;53.60;;;;;;;10.68;100.00;100810.48;106514;1254;97982;-84
2024/02/28 10:02:34;;;;;;;74.50;50.00;;;;;;;10.66;100.00;100814.65;107353;1253;102527;-89
2024/02/28 10:05:21;;;;;;;75.30;50.80;;;;;;;10.61;100.00;100816.05;106552;1261;101650;-85
2024/02/28 10:08:09;;;;;;;76.60;50.30;;;;;;;10.57;100.00;100819.90;106942;1253;98843;-87
2024/02/28 10:10:56;;;;;;;81.10;51.70;;;;;;;10.56;100.00;100820.94;106620;1259;97868;-79
2024/02/28 10:13:41;;;;;;;78.60;51.70;;;;;;;10.54;100.00;100821.83;106636;1254;98620;-85
2024/02/28 10:16:27;;;;;;;78.00;50.50;;;;;;;10.50;100.00;100825.69;106228;1253;110962;-85
2024/02/28 10:19:13;;;;;;;77.90;50.50;;;;;;;10.45;100.00;100826.00;106413;1253;101503;-80
2024/02/28 10:21:59;;;;;;;78.00;50.20;;;;;;;10.42;100.00;100830.20;106611;1254;99782;-86
2024/02/28 10:24:46;;;;;;;73.30;48.00;;;;;;;10.39;100.00;100832.25;106444;1260;98035;-86
2024/02/28 10:27:35;;;;;;;72.00;47.10;;;;;;;10.35;100.00;100833.55;106669;1253;97903;-87
2024/02/28 10:30:21;;;;;;;71.50;47.40;;;;;;;10.34;100.00;100836.33;106430;1256;102138;-87
2024/02/28 10:33:12;;;;;;;72.60;47.10;;;;;;;10.35;100.00;100837.63;106510;1253;100608;-88
2024/02/28 10:35:59;;;;;;;;;;;;;;;10.37;100.00;100833.19;106496;1253;98911;-79
2024/02/28 10:38:44;;;;;;;66.80;43.10;;;;;;;10.36;100.00;100836.67;105613;1258;98026;-77
2024/02/28 10:41:32;;;;;;;68.60;44.60;;;;;;;10.38;100.00;100839.88;105562;1259;98490;-77
2024/02/28 10:44:20;;;;;;;67.00;44.90;;;;;;;10.38;100.00;100838.40;105655;1258;102571;-77
2024/02/28 10:47:08;;;;;;;68.60;44.70;;;;;;;10.35;100.00;100839.34;108503;1253;99256;-78
2024/02/28 10:49:53;;;;;;;64.00;41.30;;;;;;;10.36;100.00;100840.84;107119;1253;97996;-77
2024/02/28 10:52:43;;;;;;;69.90;44.60;;;;;;;10.38;100.00;100847.20;105566;1259;97958;-77
2024/02/28 10:55:40;;;;;;;68.50;43.00;;;;;;;10.39;100.00;100849.17;105649;1253;97960;-77
2024/02/28 10:58:33;;;;;;;62.30;40.50;;;;;;;10.41;100.00;100848.52;105838;1256;101400;-78
2024/02/28 11:01:19;;;;;;;76.00;49.40;;;;;;;10.47;100.00;100851.66;105649;1259;99134;-78
2024/02/28 11:04:05;;;;;;;81.60;57.40;;;;;;;10.48;100.00;100853.05;105819;1253;98375;-79
2024/02/28 11:06:55;;;;;;;65.40;43.80;;;;;;;10.46;100.00;100860.27;105750;1256;97860;-80
2024/02/28 11:09:41;;;;;;;67.30;42.10;;;;;;;10.44;100.00;100862.17;105916;1258;98591;-79
2024/02/28 11:12:28;;;;;;;62.10;39.40;;;;;;;10.39;100.00;100861.66;105755;1259;102703;-79
2024/02/28 11:15:17;;;;;;;89.70;58.80;;;;;;;10.34;100.00;100862.31;105879;1254;99187;-80
2024/02/28 11:18:10;;;;;;;68.40;41.50;;;;;;;10.30;100.00;100863.64;105802;1253;98309;-78
2024/02/28 11:20:55;;;;;;;64.10;37.50;;;;;;;10.25;100.00;100865.14;105933;1256;99145;-78
2024/02/28 11:23:41;;;;;;;63.60;37.00;;;;;;;10.20;100.00;100866.45;105781;1259;99410;-79
2024/02/28 11:26:27;;;;;;;64.50;37.20;;;;;;;10.16;100.00;100863.90;105618;1254;101354;-79
2024/02/28 11:29:13;;;;;;;66.50;38.20;;;;;;;10.12;100.00;100864.52;105728;1254;100293;-79
2024/02/28 11:31:58;;;;;;;68.50;39.80;;;;;;;10.07;100.00;100861.48;105812;1259;99173;-77
2024/02/28 11:34:45;;;;;;;70.60;39.10;;;;;;;10.06;100.00;100865.15;106142;1258;99330;-77
2024/02/28 11:37:32;;;;;;;80.00;44.00;;;;;;;10.04;100.00;100866.42;105918;1257;98561;-80
2024/02/28 11:40:17;;;;;;;74.60;42.40;;;;;;;10.05;100.00;100867.63;106243;1257;101302;-78
2024/02/28 11:43:03;;;;;;;73.10;42.00;;;;;;;10.06;100.00;100869.30;105788;1253;99075;-77
2024/02/28 11:45:49;;;;;;;71.10;40.90;;;;;;;10.06;100.00;100866.95;105714;1253;99062;-78
2024/02/28 11:48:35;;;;;;;64.60;37.20;;;;;;;10.07;100.00;100869.35;105844;1267;98043;-79
2024/02/28 11:51:21;;;;;;;66.50;38.80;;;;;;;10.08;100.00;100873.83;105999;1259;98036;-87
2024/02/28 11:54:08;;;;;;;67.00;36.00;;;;;;;10.10;100.00;100875.94;106421;1253;102355;-88
2024/02/28 11:56:55;;;;;;;59.60;34.20;;;;;;;10.08;100.00;100876.92;106790;1254;99857;-86
2024/02/28 11:59:40;;;;;;;62.90;35.00;;;;;;;10.06;100.00;100874.38;106187;1254;97988;-84
2024/02/28 12:02:30;;;;;;;60.00;35.00;;;;;;;10.06;100.00;100874.21;106190;1253;98005;-83
2024/02/28 12:05:16;;;;;;;63.40;34.70;;;;;;;10.04;100.00;100874.84;106158;1259;98008;-84
2024/02/28 12:08:03;;;;;;;60.50;32.90;;;;;;;10.02;100.00;100874.33;106370;1254;102487;-82
2024/02/28 12:10:49;;;;;;;56.60;32.30;;;;;;;10.01;100.00;100879.08;106130;1253;100421;-83
2024/02/28 12:13:35;;;;;;;55.60;31.30;;;;;;;10.02;100.00;100879.67;106220;1259;97957;-82
2024/02/28 12:16:30;;;;;;;61.20;31.30;;;;;;;10.03;100.00;100879.94;106355;1257;98075;-89
2024/02/28 12:19:18;;;;;;;59.30;30.20;;;;;;;10.03;100.00;100881.69;106493;1253;98403;-84